Terminal Aerodrome Forecast
Issued by NWS

Home | Current Version | Previous Version | Text Only | Print | Product List | Glossary On
Versions: 1 2 3 4 5 6 7 8 9 10 11 12 13 14 15 16 17 18 19 20 21 22 23 24 25 26 27 28 29 30 31 32 33 34 35 36 37 38
000
FTUS45 KBYZ 050916 AAA
TAFLVM
TAF AMD
KLVM 050916Z 0509/0606 33010KT 6SM -SN SCT020 BKN035
      TEMPO 0509/0512 2SM -SN BR BKN015 OVC020
     FM051200 27014G23KT P6SM -SN BKN050
     FM052000 27014G22KT P6SM SCT050
     FM060400 23009KT P6SM SCT060=

USA.gov is the U.S. government's official web portal to all federal, state and local government web resources and services.